Norwegian Star — C6FR3 — position and weather

sailwx.info

Track history (hours):
 
Tides and Currents Weather Stations Pressure Air Temp Water Temp Dewpoint Dewpoint Depression Visibility Wind Speed Wind Dir Waves Ship Positions

Norwegian Star

Operator: Norwegian Cruise Line

Last reported at 2014-Jul-30 04:33 UTC. Time now 2014-Jul-30 05:00 UTC.
Position N 55°43' E 012°37'.

Type: Ship. MMSI: 311082000.

Date/timePositionNaut miles runAvg speedWind from/ knotsBaromVisibWave heightAir tempDewpointWater temp
2014-Jul-30 04:33N 55°43' E 012°37'1110.8
2014-Jul-30 03:33N 55°54' E 012°39'1414.3
2014-Jul-30 02:33N 56°07' E 012°30'1919.3
2014-Jul-30 01:33N 56°09' E 011°56'2120.7
2014-Jul-30 00:33N 56°07' E 011°19'2019.6
2014-Jul-29 23:32N 55°53' E 010°54'1717.9
2014-Jul-29 22:33N 55°35' E 010°50'2020.2
2014-Jul-29 21:34N 55°17' E 011°04'1919.0
2014-Jul-29 20:33N 54°58' E 010°57'1616.5
2014-Jul-29 19:33N 54°42' E 010°56'1919.0
2014-Jul-29 18:33N 54°32' E 011°24'1918.8
2014-Jul-29 17:34N 54°26' E 011°55'1615.9
2014-Jul-29 16:34N 54°36' E 012°17'1919.3
2014-Jul-29 15:34N 54°46' E 012°44'2019.8
2014-Jul-29 14:34N 54°54' E 013°16'2020.2
2014-Jul-29 13:34N 55°02' E 013°49'2019.6
2014-Jul-29 12:33N 55°13' E 014°17'2020.3
2014-Jul-29 11:33N 55°28' E 014°40'2020.2
2014-Jul-29 10:33N 55°37' E 015°12'2020.3
2014-Jul-29 09:34N 55°47' E 015°43'2020.3
2014-Jul-29 08:34N 55°58' E 016°14'2020.4
2014-Jul-29 07:34N 56°10' E 016°44'2020.0
2014-Jul-29 06:34N 56°27' E 017°02'2020.2
2014-Jul-29 05:34N 56°46' E 017°15'2020.1
2014-Jul-29 04:34N 57°05' E 017°26'2020.0
2014-Jul-29 03:34N 57°24' E 017°37'2020.0
2014-Jul-29 02:34N 57°43' E 017°50'2020.4
2014-Jul-29 01:34N 58°00' E 018°10'2020.1
2014-Jul-29 00:33N 58°18' E 018°30'2120.4
2014-Jul-28 23:33N 58°35' E 018°51'2020.1
2014-Jul-28 22:33N 58°52' E 019°11'39 5.4
2014-Jul-28 15:16N 59°22' E 018°21'810.8
2014-Jul-28 14:33N 59°19' E 018°07'1 1.0
2014-Jul-28 13:28N 59°19' E 018°05'0 0.0
2014-Jul-28 12:31N 59°19' E 018°05'0 0.0
2014-Jul-28 11:33N 59°19' E 018°05'0 0.0
2014-Jul-28 10:30N 59°19' E 018°05'0 0.0
2014-Jul-28 09:27N 59°19' E 018°05'0 0.0
2014-Jul-28 08:29N 59°19' E 018°05'0 0.0
2014-Jul-28 07:32N 59°19' E 018°05'0 0.0
2014-Jul-28 06:25N 59°19' E 018°05'0 0.0
2014-Jul-28 05:34N 59°19' E 018°05'7 7.1
2014-Jul-28 04:33N 59°23' E 018°17'4811.0
2014-Jul-28 00:12N 59°48' E 019°38'2816.7
2014-Jul-27 22:30N 59°36' E 020°29'1717.8
2014-Jul-27 21:33N 59°32' E 021°01'1616.3
2014-Jul-27 20:33N 59°27' E 021°32'1616.1
2014-Jul-27 19:33N 59°28' E 022°04'1615.7
2014-Jul-27 18:33N 59°31' E 022°34'1616.3
2014-Jul-27 17:33N 59°36' E 023°04'1716.5
2014-Jul-27 16:33N 59°40' E 023°36'1716.6
2014-Jul-27 15:33N 59°45' E 024°07'1616.3
2014-Jul-27 14:33N 59°53' E 024°36'1413.5
2014-Jul-27 13:33N 60°03' E 024°53'6 5.8
2014-Jul-27 12:31N 60°09' E 024°55'0 0.0
2014-Jul-27 11:33N 60°09' E 024°55'0 0.0
2014-Jul-27 10:33N 60°09' E 024°55'0 0.0
2014-Jul-27 09:32N 60°09' E 024°55'3 5.5
2014-Jul-27 09:00N 60°06' E 024°54'3 6.5 140 / 61017.0 5.4 23.8 19.0
2014-Jul-27 08:32N 60°09' E 024°55'0 0.0
2014-Jul-27 07:32N 60°09' E 024°55'0 0.0
2014-Jul-27 06:33N 60°09' E 024°55'3 5.3
2014-Jul-27 06:00N 60°06' E 024°54'3 6.7 360 / 31019.0 0.523.118.021.0
2014-Jul-27 05:33N 60°09' E 024°55'0 0.0
2014-Jul-27 04:32N 60°09' E 024°55'0 0.0
2014-Jul-27 03:33N 60°09' E 024°55'8 7.8
2014-Jul-27 02:34N 60°01' E 024°56'1313.3
2014-Jul-27 01:33N 59°55' E 025°20'1515.2
2014-Jul-27 00:33N 59°56' E 025°50'1515.3
2014-Jul-26 23:34N 59°60' E 026°20'1515.4
2014-Jul-26 22:33N 59°60' E 026°51'1515.2
2014-Jul-26 21:33N 60°04' E 027°20'1616.0
2014-Jul-26 20:33N 60°11' E 027°49'6014.4
2014-Jul-26 16:24N 59°59' E 029°46'1010.2
2014-Jul-26 15:23N 59°57' E 030°07'2 2.5
2014-Jul-26 14:32N 59°57' E 030°11'0 0.0
2014-Jul-26 13:22N 59°57' E 030°11'0 0.0
2014-Jul-26 12:22N 59°57' E 030°11'0 0.0
2014-Jul-26 11:33N 59°57' E 030°11'0 0.0
2014-Jul-26 10:33N 59°57' E 030°11'0 0.0
2014-Jul-26 09:33N 59°57' E 030°11'0 0.0
2014-Jul-26 08:32N 59°57' E 030°11'0 0.0
2014-Jul-26 07:23N 59°57' E 030°11'0 0.0
2014-Jul-26 06:31N 59°57' E 030°11'0 0.0
2014-Jul-26 05:31N 59°57' E 030°11'0 0.0
2014-Jul-26 04:33N 59°57' E 030°11'0 0.0
2014-Jul-26 03:30N 59°57' E 030°11'0 0.0
2014-Jul-26 02:29N 59°57' E 030°11'0 0.0
2014-Jul-26 00:29N 59°57' E 030°11'0 0.0
2014-Jul-25 22:28N 59°57' E 030°11'0 0.0
2014-Jul-25 21:33N 59°57' E 030°11'0 0.0
2014-Jul-25 20:33N 59°57' E 030°11'0 0.0
2014-Jul-25 19:26N 59°57' E 030°11'0 0.0
2014-Jul-25 17:20N 59°57' E 030°11'0 0.0
2014-Jul-25 16:07N 59°57' E 030°11'0 0.0
2014-Jul-25 15:31N 59°57' E 030°11'0 0.0
2014-Jul-25 14:33N 59°57' E 030°11'0 0.0
2014-Jul-25 13:12N 59°57' E 030°11'314.3
2014-Jul-25 13:00N 60°00' E 030°12'3 1.2 270 / 161018.010.8 24.0 22.0
2014-Jul-25 10:29N 59°57' E 030°11'0 0.0
2014-Jul-25 09:28N 59°57' E 030°11'3 6.1
2014-Jul-25 09:00N 60°00' E 030°12'0 0.0 270 / 101021.0 0.524.018.022.0
2014-Jul-25 08:00N 60°00' E 030°12'3 1.2 260 / 81019.0 5.4 0.523.6 22.0
2014-Jul-25 05:32N 59°57' E 030°11'0 0.0
2014-Jul-25 04:20N 59°57' E 030°11'0 0.0
2014-Jul-25 03:33N 59°57' E 030°11'7 7.1
2014-Jul-25 02:33N 59°56' E 029°57'9014.0
2014-Jul-24 20:07N 59°59' E 026°57'916.8
2014-Jul-24 19:33N 59°59' E 026°39'1816.7
2014-Jul-24 18:28N 59°54' E 026°04'816.9
2014-Jul-24 18:00N 59°54' E 025°48'717.3 100 / 131018.010.8 1.022.0 21.0
2014-Jul-24 17:34N 59°50' E 025°35'1916.6
2014-Jul-24 16:24N 59°45' E 024°59'1315.0
2014-Jul-24 15:33N 59°35' E 024°42'9 3.8
2014-Jul-24 13:14N 59°27' E 024°46'3 1.4
2014-Jul-24 11:00N 59°24' E 024°48'3 6.5 320 / 101020.0 0.522.517.816.0
2014-Jul-24 10:30N 59°27' E 024°46'3 6.1
2014-Jul-24 10:00N 59°24' E 024°48'25 3.9 320 / 111020.0 0.522.017.016.0
2014-Jul-24 03:33N 59°28' E 023°60'1716.7
2014-Jul-24 02:32N 59°25' E 023°27'1616.8
2014-Jul-24 01:33N 59°22' E 022°55'1716.6
2014-Jul-24 00:33N 59°18' E 022°24'1716.7
2014-Jul-23 23:33N 59°08' E 021°57'1716.6
2014-Jul-23 22:33N 58°56' E 021°35'6319.5
2014-Jul-23 19:20N 58°04' E 020°28'412.4
2014-Jul-23 19:00N 58°00' E 020°24'1126.2 050 / 161019.0 5.4 1.520.7 20.0
2014-Jul-23 18:33N 57°50' E 020°12'1730.9
2014-Jul-23 18:00N 57°36' E 019°54'3 6.1 020 / 221019.0 5.4 1.520.5 20.0
2014-Jul-23 17:33N 57°34' E 019°52'2020.0
2014-Jul-23 16:33N 57°17' E 019°31'1716.9
2014-Jul-23 15:33N 57°06' E 019°08'1616.2
2014-Jul-23 14:33N 56°55' E 018°45'1616.1
2014-Jul-23 13:33N 56°46' E 018°22'1616.5
2014-Jul-23 12:33N 56°35' E 017°59'1616.5
2014-Jul-23 11:33N 56°24' E 017°36'1616.1
2014-Jul-23 10:33N 56°14' E 017°14'1616.2
2014-Jul-23 09:33N 56°04' E 016°50'1716.1
2014-Jul-23 08:30N 55°55' E 016°25'1516.0
2014-Jul-23 07:33N 55°48' E 016°01'1616.0
2014-Jul-23 06:33N 55°40' E 015°36'1616.0
2014-Jul-23 05:33N 55°32' E 015°12'1616.2
2014-Jul-23 04:33N 55°25' E 014°46'1120.3
2014-Jul-23 04:00N 55°18' E 014°30'510.9 050 / 231020.0 1.020.017.019.0
2014-Jul-23 03:33N 55°14' E 014°25'1616.3
2014-Jul-23 02:33N 55°02' E 014°06'1616.4
2014-Jul-23 01:34N 54°56' E 013°40'1716.5
2014-Jul-23 00:34N 54°51' E 013°13'1616.2
2014-Jul-22 23:33N 54°46' E 012°46'1615.6
2014-Jul-22 22:33N 54°38' E 012°22'1515.0
2014-Jul-22 21:33N 54°25' E 012°10'1312.6
2014-Jul-22 20:33N 54°13' E 012°05'2 2.0
2014-Jul-22 19:32N 54°11' E 012°06'0 0.0
2014-Jul-22 18:28N 54°11' E 012°06'0 0.0
2014-Jul-22 17:31N 54°11' E 012°06'0 0.0
2014-Jul-22 16:33N 54°11' E 012°06'0 0.0
2014-Jul-22 15:33N 54°11' E 012°06'0 0.0
2014-Jul-22 14:32N 54°11' E 012°06'0 0.0
2014-Jul-22 13:32N 54°11' E 012°06'0 0.0
2014-Jul-22 12:32N 54°11' E 012°06'0 0.0
2014-Jul-22 11:31N 54°11' E 012°06'1 2.7
2014-Jul-22 11:00N 54°12' E 012°06'1 2.9 050 / 221018.0 0.519.319.020.0
2014-Jul-22 10:31N 54°11' E 012°06'0 0.0
2014-Jul-22 09:15N 54°11' E 012°06'0 0.0
2014-Jul-22 08:27N 54°11' E 012°06'0 0.0
2014-Jul-22 07:32N 54°11' E 012°06'0 0.0
2014-Jul-22 06:32N 54°11' E 012°06'0 0.2
2014-Jul-22 05:34N 54°10' E 012°06'5 4.8
2014-Jul-22 04:33N 54°15' E 012°02'1817.7
2014-Jul-22 03:33N 54°26' E 011°38'2019.5
2014-Jul-22 02:33N 54°35' E 011°09'3415.5
2014-Jul-22 00:21N 55°09' E 010°59'5514.1
2014-Jul-21 20:26N 56°04' E 011°06'315.2
2014-Jul-21 20:16N 56°06' E 011°08'1115.8
2014-Jul-21 19:33N 56°07' E 011°28'1616.3
2014-Jul-21 18:33N 56°09' E 011°58'1515.6
2014-Jul-21 17:33N 56°10' E 012°25'1616.3
2014-Jul-21 16:33N 55°57' E 012°43'1414.2
2014-Jul-21 15:33N 55°43' E 012°38'1 0.6
2014-Jul-21 14:30N 55°43' E 012°37'0 0.0
2014-Jul-21 13:33N 55°43' E 012°37'0 0.0
2014-Jul-21 12:33N 55°43' E 012°37'0 0.0
2014-Jul-21 11:32N 55°43' E 012°37'1 2.0
2014-Jul-21 11:00N 55°42' E 012°36'1 2.4 050 / 101014.0 5.4 0.523.0 20.0
2014-Jul-21 10:32N 55°43' E 012°37'1 2.1
2014-Jul-21 10:00N 55°42' E 012°36'1 2.4 090 / 101014.0 5.4 0.523.0 20.0
2014-Jul-21 09:31N 55°43' E 012°37'0 0.0
2014-Jul-21 08:31N 55°43' E 012°37'0 0.0
2014-Jul-21 07:32N 55°43' E 012°37'1 2.0
2014-Jul-21 07:00N 55°42' E 012°36'1 2.4 050 / 131015.0 0.520.017.020.0
2014-Jul-21 06:32N 55°43' E 012°37'0 0.0
2014-Jul-21 05:31N 55°43' E 012°37'0 0.2
2014-Jul-21 04:33N 55°43' E 012°38'10 9.6
2014-Jul-21 03:33N 55°52' E 012°40'1413.8
2014-Jul-21 02:33N 56°06' E 012°34'1515.4
2014-Jul-21 01:33N 56°12' E 012°08'2015.4
2014-Jul-21 00:15N 56°07' E 011°33'1215.8
2014-Jul-20 23:30N 56°07' E 011°12'1817.9
2014-Jul-20 22:28N 55°52' E 010°53'1820.2
2014-Jul-20 21:33N 55°34' E 010°51'2020.3
2014-Jul-20 20:33N 55°15' E 011°05'1414.3
2014-Jul-20 19:33N 55°01' E 010°60'1919.1
2014-Jul-20 18:33N 54°42' E 010°53'2121.0
2014-Jul-20 17:33N 54°32' E 011°24'2020.4
2014-Jul-20 16:33N 54°26' E 011°58'1717.4
2014-Jul-20 15:33N 54°38' E 012°21'2019.6
2014-Jul-20 14:33N 54°48' E 012°49'2020.4
2014-Jul-20 13:33N 54°56' E 013°22'2120.7
2014-Jul-20 12:33N 55°03' E 013°56'2020.2
2014-Jul-20 11:33N 55°18' E 014°21'2020.3
2014-Jul-20 10:33N 55°31' E 014°48'2120.9
2014-Jul-20 09:34N 55°40' E 015°21'2121.0
2014-Jul-20 08:33N 55°51' E 015°53'2120.9
2014-Jul-20 07:33N 56°02' E 016°24'713.1
2014-Jul-20 07:00N 56°06' E 016°36'1331.0 090 / 111016.0 0.519.419.317.0
2014-Jul-20 06:33N 56°14' E 016°55'2120.6
2014-Jul-20 05:33N 56°34' E 017°07'2120.7
2014-Jul-20 04:33N 56°53' E 017°19'  
Track history (hours):
 
Tides and Currents Weather Stations Pressure Air Temp Water Temp Dewpoint Dewpoint Depression Visibility Wind Speed Wind Dir Waves Ship Positions

Norwegian Star

Operator: Norwegian Cruise Line

Last reported at 2014-Jul-30 04:33 UTC. Time now 2014-Jul-30 05:00 UTC.
Position N 55°43' E 012°37'.

Type: Ship. MMSI: 311082000.

Date/timePositionNaut miles runAvg speedWind from/ knotsBaromVisibWave heightAir tempDewpointWater temp
2014-Jul-30 04:33N 55°43' E 012°37'1110.8
2014-Jul-30 03:33N 55°54' E 012°39'1414.3
2014-Jul-30 02:33N 56°07' E 012°30'1919.3
2014-Jul-30 01:33N 56°09' E 011°56'2120.7
2014-Jul-30 00:33N 56°07' E 011°19'2019.6
2014-Jul-29 23:32N 55°53' E 010°54'1717.9
2014-Jul-29 22:33N 55°35' E 010°50'2020.2
2014-Jul-29 21:34N 55°17' E 011°04'1919.0
2014-Jul-29 20:33N 54°58' E 010°57'1616.5
2014-Jul-29 19:33N 54°42' E 010°56'1919.0
2014-Jul-29 18:33N 54°32' E 011°24'1918.8
2014-Jul-29 17:34N 54°26' E 011°55'1615.9
2014-Jul-29 16:34N 54°36' E 012°17'1919.3
2014-Jul-29 15:34N 54°46' E 012°44'2019.8
2014-Jul-29 14:34N 54°54' E 013°16'2020.2
2014-Jul-29 13:34N 55°02' E 013°49'2019.6
2014-Jul-29 12:33N 55°13' E 014°17'2020.3
2014-Jul-29 11:33N 55°28' E 014°40'2020.2
2014-Jul-29 10:33N 55°37' E 015°12'2020.3
2014-Jul-29 09:34N 55°47' E 015°43'2020.3
2014-Jul-29 08:34N 55°58' E 016°14'2020.4
2014-Jul-29 07:34N 56°10' E 016°44'2020.0
2014-Jul-29 06:34N 56°27' E 017°02'2020.2
2014-Jul-29 05:34N 56°46' E 017°15'2020.1
2014-Jul-29 04:34N 57°05' E 017°26'2020.0
2014-Jul-29 03:34N 57°24' E 017°37'2020.0
2014-Jul-29 02:34N 57°43' E 017°50'2020.4
2014-Jul-29 01:34N 58°00' E 018°10'2020.1
2014-Jul-29 00:33N 58°18' E 018°30'2120.4
2014-Jul-28 23:33N 58°35' E 018°51'2020.1
2014-Jul-28 22:33N 58°52' E 019°11'39 5.4
2014-Jul-28 15:16N 59°22' E 018°21'810.8
2014-Jul-28 14:33N 59°19' E 018°07'1 1.0
2014-Jul-28 13:28N 59°19' E 018°05'0 0.0
2014-Jul-28 12:31N 59°19' E 018°05'0 0.0
2014-Jul-28 11:33N 59°19' E 018°05'0 0.0
2014-Jul-28 10:30N 59°19' E 018°05'0 0.0
2014-Jul-28 09:27N 59°19' E 018°05'0 0.0
2014-Jul-28 08:29N 59°19' E 018°05'0 0.0
2014-Jul-28 07:32N 59°19' E 018°05'0 0.0
2014-Jul-28 06:25N 59°19' E 018°05'0 0.0
2014-Jul-28 05:34N 59°19' E 018°05'7 7.1
2014-Jul-28 04:33N 59°23' E 018°17'4811.0
2014-Jul-28 00:12N 59°48' E 019°38'2816.7
2014-Jul-27 22:30N 59°36' E 020°29'1717.8
2014-Jul-27 21:33N 59°32' E 021°01'1616.3
2014-Jul-27 20:33N 59°27' E 021°32'1616.1
2014-Jul-27 19:33N 59°28' E 022°04'1615.7
2014-Jul-27 18:33N 59°31' E 022°34'1616.3
2014-Jul-27 17:33N 59°36' E 023°04'1716.5
2014-Jul-27 16:33N 59°40' E 023°36'1716.6
2014-Jul-27 15:33N 59°45' E 024°07'1616.3
2014-Jul-27 14:33N 59°53' E 024°36'1413.5
2014-Jul-27 13:33N 60°03' E 024°53'6 5.8
2014-Jul-27 12:31N 60°09' E 024°55'0 0.0
2014-Jul-27 11:33N 60°09' E 024°55'0 0.0
2014-Jul-27 10:33N 60°09' E 024°55'0 0.0
2014-Jul-27 09:32N 60°09' E 024°55'3 5.5
2014-Jul-27 09:00N 60°06' E 024°54'3 6.5 140 / 61017.0 5.4 23.8 19.0
2014-Jul-27 08:32N 60°09' E 024°55'0 0.0
2014-Jul-27 07:32N 60°09' E 024°55'0 0.0
2014-Jul-27 06:33N 60°09' E 024°55'3 5.3
2014-Jul-27 06:00N 60°06' E 024°54'3 6.7 360 / 31019.0 0.523.118.021.0
2014-Jul-27 05:33N 60°09' E 024°55'0 0.0
2014-Jul-27 04:32N 60°09' E 024°55'0 0.0
2014-Jul-27 03:33N 60°09' E 024°55'8 7.8
2014-Jul-27 02:34N 60°01' E 024°56'1313.3
2014-Jul-27 01:33N 59°55' E 025°20'1515.2
2014-Jul-27 00:33N 59°56' E 025°50'1515.3
2014-Jul-26 23:34N 59°60' E 026°20'1515.4
2014-Jul-26 22:33N 59°60' E 026°51'1515.2
2014-Jul-26 21:33N 60°04' E 027°20'1616.0
2014-Jul-26 20:33N 60°11' E 027°49'6014.4
2014-Jul-26 16:24N 59°59' E 029°46'1010.2
2014-Jul-26 15:23N 59°57' E 030°07'2 2.5
2014-Jul-26 14:32N 59°57' E 030°11'0 0.0
2014-Jul-26 13:22N 59°57' E 030°11'0 0.0
2014-Jul-26 12:22N 59°57' E 030°11'0 0.0
2014-Jul-26 11:33N 59°57' E 030°11'0 0.0
2014-Jul-26 10:33N 59°57' E 030°11'0 0.0
2014-Jul-26 09:33N 59°57' E 030°11'0 0.0
2014-Jul-26 08:32N 59°57' E 030°11'0 0.0
2014-Jul-26 07:23N 59°57' E 030°11'0 0.0
2014-Jul-26 06:31N 59°57' E 030°11'0 0.0
2014-Jul-26 05:31N 59°57' E 030°11'0 0.0
2014-Jul-26 04:33N 59°57' E 030°11'0 0.0
2014-Jul-26 03:30N 59°57' E 030°11'0 0.0
2014-Jul-26 02:29N 59°57' E 030°11'0 0.0
2014-Jul-26 00:29N 59°57' E 030°11'0 0.0
2014-Jul-25 22:28N 59°57' E 030°11'0 0.0
2014-Jul-25 21:33N 59°57' E 030°11'0 0.0
2014-Jul-25 20:33N 59°57' E 030°11'0 0.0
2014-Jul-25 19:26N 59°57' E 030°11'0 0.0
2014-Jul-25 17:20N 59°57' E 030°11'0 0.0
2014-Jul-25 16:07N 59°57' E 030°11'0 0.0
2014-Jul-25 15:31N 59°57' E 030°11'0 0.0
2014-Jul-25 14:33N 59°57' E 030°11'0 0.0
2014-Jul-25 13:12N 59°57' E 030°11'314.3
2014-Jul-25 13:00N 60°00' E 030°12'3 1.2 270 / 161018.010.8 24.0 22.0
2014-Jul-25 10:29N 59°57' E 030°11'0 0.0
2014-Jul-25 09:28N 59°57' E 030°11'3 6.1
2014-Jul-25 09:00N 60°00' E 030°12'0 0.0 270 / 101021.0 0.524.018.022.0
2014-Jul-25 08:00N 60°00' E 030°12'3 1.2 260 / 81019.0 5.4 0.523.6 22.0
2014-Jul-25 05:32N 59°57' E 030°11'0 0.0
2014-Jul-25 04:20N 59°57' E 030°11'0 0.0
2014-Jul-25 03:33N 59°57' E 030°11'7 7.1
2014-Jul-25 02:33N 59°56' E 029°57'9014.0
2014-Jul-24 20:07N 59°59' E 026°57'916.8
2014-Jul-24 19:33N 59°59' E 026°39'1816.7
2014-Jul-24 18:28N 59°54' E 026°04'816.9
2014-Jul-24 18:00N 59°54' E 025°48'717.3 100 / 131018.010.8 1.022.0 21.0
2014-Jul-24 17:34N 59°50' E 025°35'1916.6
2014-Jul-24 16:24N 59°45' E 024°59'1315.0
2014-Jul-24 15:33N 59°35' E 024°42'9 3.8
2014-Jul-24 13:14N 59°27' E 024°46'3 1.4
2014-Jul-24 11:00N 59°24' E 024°48'3 6.5 320 / 101020.0 0.522.517.816.0
2014-Jul-24 10:30N 59°27' E 024°46'3 6.1
2014-Jul-24 10:00N 59°24' E 024°48'25 3.9 320 / 111020.0 0.522.017.016.0
2014-Jul-24 03:33N 59°28' E 023°60'1716.7
2014-Jul-24 02:32N 59°25' E 023°27'1616.8
2014-Jul-24 01:33N 59°22' E 022°55'1716.6
2014-Jul-24 00:33N 59°18' E 022°24'1716.7
2014-Jul-23 23:33N 59°08' E 021°57'1716.6
2014-Jul-23 22:33N 58°56' E 021°35'6319.5
2014-Jul-23 19:20N 58°04' E 020°28'412.4
2014-Jul-23 19:00N 58°00' E 020°24'1126.2 050 / 161019.0 5.4 1.520.7 20.0
2014-Jul-23 18:33N 57°50' E 020°12'1730.9
2014-Jul-23 18:00N 57°36' E 019°54'3 6.1 020 / 221019.0 5.4 1.520.5 20.0
2014-Jul-23 17:33N 57°34' E 019°52'2020.0
2014-Jul-23 16:33N 57°17' E 019°31'1716.9
2014-Jul-23 15:33N 57°06' E 019°08'1616.2
2014-Jul-23 14:33N 56°55' E 018°45'1616.1
2014-Jul-23 13:33N 56°46' E 018°22'1616.5
2014-Jul-23 12:33N 56°35' E 017°59'1616.5
2014-Jul-23 11:33N 56°24' E 017°36'1616.1
2014-Jul-23 10:33N 56°14' E 017°14'1616.2
2014-Jul-23 09:33N 56°04' E 016°50'1716.1
2014-Jul-23 08:30N 55°55' E 016°25'1516.0
2014-Jul-23 07:33N 55°48' E 016°01'1616.0
2014-Jul-23 06:33N 55°40' E 015°36'1616.0
2014-Jul-23 05:33N 55°32' E 015°12'1616.2
2014-Jul-23 04:33N 55°25' E 014°46'1120.3
2014-Jul-23 04:00N 55°18' E 014°30'510.9 050 / 231020.0 1.020.017.019.0
2014-Jul-23 03:33N 55°14' E 014°25'1616.3
2014-Jul-23 02:33N 55°02' E 014°06'1616.4
2014-Jul-23 01:34N 54°56' E 013°40'1716.5
2014-Jul-23 00:34N 54°51' E 013°13'1616.2
2014-Jul-22 23:33N 54°46' E 012°46'1615.6
2014-Jul-22 22:33N 54°38' E 012°22'1515.0
2014-Jul-22 21:33N 54°25' E 012°10'1312.6
2014-Jul-22 20:33N 54°13' E 012°05'2 2.0
2014-Jul-22 19:32N 54°11' E 012°06'0 0.0
2014-Jul-22 18:28N 54°11' E 012°06'0 0.0
2014-Jul-22 17:31N 54°11' E 012°06'0 0.0
2014-Jul-22 16:33N 54°11' E 012°06'0 0.0
2014-Jul-22 15:33N 54°11' E 012°06'0 0.0
2014-Jul-22 14:32N 54°11' E 012°06'0 0.0
2014-Jul-22 13:32N 54°11' E 012°06'0 0.0
2014-Jul-22 12:32N 54°11' E 012°06'0 0.0
2014-Jul-22 11:31N 54°11' E 012°06'1 2.7
2014-Jul-22 11:00N 54°12' E 012°06'1 2.9 050 / 221018.0 0.519.319.020.0
2014-Jul-22 10:31N 54°11' E 012°06'0 0.0
2014-Jul-22 09:15N 54°11' E 012°06'0 0.0
2014-Jul-22 08:27N 54°11' E 012°06'0 0.0
2014-Jul-22 07:32N 54°11' E 012°06'0 0.0
2014-Jul-22 06:32N 54°11' E 012°06'0 0.2
2014-Jul-22 05:34N 54°10' E 012°06'5 4.8
2014-Jul-22 04:33N 54°15' E 012°02'1817.7
2014-Jul-22 03:33N 54°26' E 011°38'2019.5
2014-Jul-22 02:33N 54°35' E 011°09'3415.5
2014-Jul-22 00:21N 55°09' E 010°59'5514.1
2014-Jul-21 20:26N 56°04' E 011°06'315.2
2014-Jul-21 20:16N 56°06' E 011°08'1115.8
2014-Jul-21 19:33N 56°07' E 011°28'1616.3
2014-Jul-21 18:33N 56°09' E 011°58'1515.6
2014-Jul-21 17:33N 56°10' E 012°25'1616.3
2014-Jul-21 16:33N 55°57' E 012°43'1414.2
2014-Jul-21 15:33N 55°43' E 012°38'1 0.6
2014-Jul-21 14:30N 55°43' E 012°37'0 0.0
2014-Jul-21 13:33N 55°43' E 012°37'0 0.0
2014-Jul-21 12:33N 55°43' E 012°37'0 0.0
2014-Jul-21 11:32N 55°43' E 012°37'1 2.0
2014-Jul-21 11:00N 55°42' E 012°36'1 2.4 050 / 101014.0 5.4 0.523.0 20.0
2014-Jul-21 10:32N 55°43' E 012°37'1 2.1
2014-Jul-21 10:00N 55°42' E 012°36'1 2.4 090 / 101014.0 5.4 0.523.0 20.0
2014-Jul-21 09:31N 55°43' E 012°37'0 0.0
2014-Jul-21 08:31N 55°43' E 012°37'0 0.0
2014-Jul-21 07:32N 55°43' E 012°37'1 2.0
2014-Jul-21 07:00N 55°42' E 012°36'1 2.4 050 / 131015.0 0.520.017.020.0
2014-Jul-21 06:32N 55°43' E 012°37'0 0.0
2014-Jul-21 05:31N 55°43' E 012°37'0 0.2
2014-Jul-21 04:33N 55°43' E 012°38'10 9.6
2014-Jul-21 03:33N 55°52' E 012°40'1413.8
2014-Jul-21 02:33N 56°06' E 012°34'1515.4
2014-Jul-21 01:33N 56°12' E 012°08'2015.4
2014-Jul-21 00:15N 56°07' E 011°33'1215.8
2014-Jul-20 23:30N 56°07' E 011°12'1817.9
2014-Jul-20 22:28N 55°52' E 010°53'1820.2
2014-Jul-20 21:33N 55°34' E 010°51'2020.3
2014-Jul-20 20:33N 55°15' E 011°05'1414.3
2014-Jul-20 19:33N 55°01' E 010°60'1919.1
2014-Jul-20 18:33N 54°42' E 010°53'2121.0
2014-Jul-20 17:33N 54°32' E 011°24'2020.4
2014-Jul-20 16:33N 54°26' E 011°58'1717.4
2014-Jul-20 15:33N 54°38' E 012°21'2019.6
2014-Jul-20 14:33N 54°48' E 012°49'2020.4
2014-Jul-20 13:33N 54°56' E 013°22'2120.7
2014-Jul-20 12:33N 55°03' E 013°56'2020.2
2014-Jul-20 11:33N 55°18' E 014°21'2020.3
2014-Jul-20 10:33N 55°31' E 014°48'2120.9
2014-Jul-20 09:34N 55°40' E 015°21'2121.0
2014-Jul-20 08:33N 55°51' E 015°53'2120.9
2014-Jul-20 07:33N 56°02' E 016°24'713.1
2014-Jul-20 07:00N 56°06' E 016°36'1331.0 090 / 111016.0 0.519.419.317.0
2014-Jul-20 06:33N 56°14' E 016°55'2120.6
2014-Jul-20 05:33N 56°34' E 017°07'2120.7
2014-Jul-20 04:33N 56°53' E 017°19'  

Dump ship's entire track history